Station History

Weather Underground - logo

Station Historical Data
Daily Summary for July 28, 2017 Units:  English    Metric   Both
« Previous Day
Next Day »
Daily Weekly Monthly Yearly Custom
  High: Low: Average:
Temperature: 103.2 °F 68.2 °F 86 °F
Dew Point: 66.9 °F 47.8 °F 60.5 °F
Humidity: 81 % 16 % 48 %
Wind Speed: 7.0 mph 0.0 mph 1.5 mph
Wind Gust: 7.0 mph - -
Wind:- - SSW
Pressure: 29.83 in 29.72 in -
Precipitation: 0.00 in    
Historical Graphs
 
 
Tabular Data for July 28, 2017
Time Temperature Dew Point Pressure Wind Wind Speed Wind Gust Humidity Rainfall Rate (Hourly)
00:03 77.5 °F 62.5 °F 29.78 in Calm     60 % 0.00 in
00:13 77.0 °F 63.0 °F 29.79 in Calm     62 % 0.00 in
00:18 76.8 °F 63.2 °F 29.79 in Calm     63 % 0.00 in
00:33 76.5 °F 63.9 °F 29.78 in Calm     65 % 0.00 in
00:38 76.4 °F 63.3 °F 29.78 in Calm     64 % 0.00 in
00:44 76.2 °F 63.1 °F 29.78 in Calm     64 % 0.00 in
00:49 76.1 °F 63.9 °F 29.78 in Calm     66 % 0.00 in
00:54 75.8 °F 63.6 °F 29.78 in Calm     66 % 0.00 in
00:59 75.8 °F 63.6 °F 29.78 in Calm     66 % 0.00 in
01:04 75.6 °F 63.4 °F 29.79 in Calm     66 % 0.00 in
01:09 75.3 °F 63.2 °F 29.79 in Calm     66 % 0.00 in
01:14 75.1 °F 63.8 °F 29.79 in Calm     68 % 0.00 in
01:19 74.9 °F 64.0 °F 29.79 in Calm     69 % 0.00 in
01:24 74.4 °F 64.8 °F 29.79 in NNW 1.0 mph 1.0 mph 72 % 0.00 in
01:29 74.0 °F 64.8 °F 29.79 in Calm     73 % 0.00 in
01:34 73.7 °F 64.9 °F 29.79 in Calm     74 % 0.00 in
01:39 73.6 °F 65.2 °F 29.79 in Calm     75 % 0.00 in
01:44 73.5 °F 65.1 °F 29.79 in Calm     75 % 0.00 in
01:49 73.2 °F 65.2 °F 29.79 in Calm     76 % 0.00 in
01:54 72.9 °F 65.3 °F 29.79 in Calm     77 % 0.00 in
01:59 72.7 °F 65.1 °F 29.79 in Calm     77 % 0.00 in
02:04 72.5 °F 65.2 °F 29.79 in Calm     78 % 0.00 in
02:09 72.4 °F 65.2 °F 29.79 in Calm     78 % 0.00 in
02:14 72.2 °F 65.0 °F 29.79 in Calm     78 % 0.00 in
02:19 72.1 °F 64.9 °F 29.79 in Calm     78 % 0.00 in
02:24 72.0 °F 64.8 °F 29.79 in North 1.2 mph   78 % 0.00 in
02:29 72.0 °F 64.8 °F 29.79 in Calm     78 % 0.00 in
02:34 71.9 °F 64.7 °F 29.79 in Calm     78 % 0.00 in
02:39 71.9 °F 64.3 °F 29.79 in Calm     77 % 0.00 in
02:44 71.8 °F 64.2 °F 29.79 in Calm     77 % 0.00 in
02:49 71.8 °F 64.2 °F 29.79 in Calm     77 % 0.00 in
02:54 71.6 °F 64.0 °F 29.79 in Calm     77 % 0.00 in
02:59 71.5 °F 63.9 °F 29.79 in Calm     77 % 0.00 in
03:04 71.4 °F 63.8 °F 29.79 in Calm     77 % 0.00 in
03:09 71.5 °F 63.5 °F 29.79 in Calm     76 % 0.00 in
03:14 71.5 °F 63.2 °F 29.79 in Calm     75 % 0.00 in
03:19 71.4 °F 62.7 °F 29.79 in Calm     74 % 0.00 in
03:24 71.2 °F 62.5 °F 29.79 in Calm     74 % 0.00 in
03:29 71.1 °F 62.0 °F 29.79 in Calm     73 % 0.00 in
03:34 71.2 °F 62.1 °F 29.79 in Calm     73 % 0.00 in
03:39 71.4 °F 61.9 °F 29.79 in North 1.2 mph   72 % 0.00 in
03:44 71.5 °F 61.6 °F 29.79 in Calm     71 % 0.00 in
03:49 71.3 °F 61.8 °F 29.79 in Calm     72 % 0.00 in
03:54 71.1 °F 61.6 °F 29.79 in Calm     72 % 0.00 in
04:00 70.9 °F 61.8 °F 29.79 in Calm     73 % 0.00 in
04:05 70.7 °F 61.6 °F 29.79 in Calm     73 % 0.00 in
04:10 70.6 °F 61.9 °F 29.79 in Calm     74 % 0.00 in
04:15 70.4 °F 61.7 °F 29.79 in Calm     74 % 0.00 in
04:20 70.3 °F 62.0 °F 29.79 in Calm     75 % 0.00 in
04:25 70.2 °F 61.9 °F 29.79 in Calm     75 % 0.00 in
04:30 70.2 °F 62.3 °F 29.80 in Calm     76 % 0.00 in
04:35 70.1 °F 62.2 °F 29.79 in Calm     76 % 0.00 in
04:40 69.9 °F 62.0 °F 29.79 in Calm     76 % 0.00 in
04:45 69.7 °F 62.2 °F 29.79 in Calm     77 % 0.00 in
04:47 69.6 °F 62.4 °F 29.80 in Calm     78 % 0.00 in
04:52 69.4 °F 62.2 °F 29.79 in Calm     78 % 0.00 in
04:58 69.4 °F 62.2 °F 29.80 in Calm     78 % 0.00 in
05:03 69.3 °F 61.8 °F 29.80 in Calm   0.4 mph 77 % 0.00 in
05:08 69.2 °F 61.7 °F 29.80 in Calm     77 % 0.00 in
05:13 69.1 °F 61.9 °F 29.80 in Calm     78 % 0.00 in
05:18 68.9 °F 61.8 °F 29.80 in Calm     78 % 0.00 in
05:23 68.8 °F 62.0 °F 29.80 in Calm     79 % 0.00 in
05:28 68.6 °F 61.8 °F 29.80 in Calm     79 % 0.00 in
05:33 68.6 °F 61.5 °F 29.80 in Calm     78 % 0.00 in
05:38 68.6 °F 62.5 °F 29.80 in Calm     81 % 0.00 in
05:43 68.4 °F 61.6 °F 29.81 in Calm     79 % 0.00 in
05:48 68.2 °F 61.4 °F 29.81 in Calm     79 % 0.00 in
05:53 68.2 °F 61.4 °F 29.81 in North 1.2 mph 1.2 mph 79 % 0.00 in
05:58 68.4 °F 61.3 °F 29.81 in Calm     78 % 0.00 in
06:03 68.6 °F 61.1 °F 29.81 in North 1.2 mph 1.2 mph 77 % 0.00 in
06:08 68.6 °F 61.1 °F 29.81 in Calm     77 % 0.00 in
06:13 68.7 °F 61.2 °F 29.81 in Calm     77 % 0.00 in
06:18 68.8 °F 61.3 °F 29.82 in North 1.2 mph 1.2 mph 77 % 0.00 in
06:23 68.7 °F 61.2 °F 29.82 in Calm     77 % 0.00 in
06:28 68.6 °F 61.1 °F 29.82 in Calm     77 % 0.00 in
06:33 68.5 °F 61.0 °F 29.82 in North 1.2 mph   77 % 0.00 in
06:38 68.6 °F 61.1 °F 29.82 in North 1.2 mph   77 % 0.00 in
06:43 68.8 °F 61.7 °F 29.82 in Calm     78 % 0.00 in
06:48 69.0 °F 61.5 °F 29.82 in Calm   0.1 mph 77 % 0.00 in
06:53 69.3 °F 61.8 °F 29.83 in North 1.2 mph 1.2 mph 77 % 0.00 in
06:58 69.7 °F 61.8 °F 29.83 in NNE 1.2 mph 1.2 mph 76 % 0.00 in
07:03 69.9 °F 62.0 °F 29.83 in NNE 2.3 mph   76 % 0.00 in
07:08 70.5 °F 62.2 °F 29.82 in NNE 1.2 mph 1.2 mph 75 % 0.00 in
07:13 71.8 °F 62.7 °F 29.83 in NE 1.2 mph 1.2 mph 73 % 0.00 in
07:18 73.4 °F 63.0 °F 29.83 in SE 1.0 mph 1.0 mph 70 % 0.00 in
07:20 73.9 °F 63.1 °F 29.83 in South 1.0 mph   69 % 0.00 in
07:25 74.9 °F 63.2 °F 29.83 in SE 1.0 mph 1.0 mph 67 % 0.00 in
07:26 75.1 °F 63.4 °F 29.83 in South 1.2 mph 1.2 mph 67 % 0.00 in
07:31 75.7 °F 63.1 °F 29.83 in SE 1.2 mph 1.2 mph 65 % 0.00 in
07:41 76.6 °F 63.1 °F 29.83 in ESE 2.3 mph 2.3 mph 63 % 0.00 in
07:46 77.4 °F 62.9 °F 29.83 in SE 1.2 mph 1.2 mph 61 % 0.00 in
07:51 78.0 °F 63.0 °F 29.83 in SSW 2.0 mph 2.0 mph 60 % 0.00 in
07:56 78.6 °F 62.6 °F 29.83 in SE 3.5 mph 3.5 mph 58 % 0.00 in
08:01 78.9 °F 62.9 °F 29.83 in East 1.2 mph 1.2 mph 58 % 0.00 in
08:11 79.9 °F 62.3 °F 29.83 in South 1.0 mph 1.0 mph 55 % 0.00 in
08:16 80.5 °F 62.8 °F 29.83 in NE 2.3 mph 2.3 mph 55 % 0.00 in
08:21 81.0 °F 63.8 °F 29.83 in SE 1.2 mph   56 % 0.00 in
08:22 81.0 °F 63.8 °F 29.83 in Calm     56 % 0.00 in
08:27 81.7 °F 63.4 °F 29.83 in SSE 2.3 mph 2.3 mph 54 % 0.00 in
08:32 81.9 °F 62.0 °F 29.83 in East 3.5 mph 3.5 mph 51 % 0.00 in
08:37 82.2 °F 63.4 °F 29.83 in East 1.2 mph 1.2 mph 53 % 0.00 in
08:42 82.8 °F 63.4 °F 29.83 in SE 1.2 mph 1.2 mph 52 % 0.00 in
08:47 83.3 °F 63.8 °F 29.83 in SE 1.2 mph   52 % 0.00 in
08:52 83.9 °F 62.7 °F 29.83 in South 3.0 mph 3.0 mph 49 % 0.00 in
08:57 83.9 °F 62.1 °F 29.83 in SSW 3.5 mph 3.5 mph 48 % 0.00 in
09:02 84.2 °F 62.4 °F 29.83 in SSE 3.5 mph 3.5 mph 48 % 0.00 in
09:07 84.4 °F 62.6 °F 29.83 in ESE 2.3 mph 2.3 mph 48 % 0.00 in
09:12 84.8 °F 62.9 °F 29.83 in SE 1.2 mph 1.2 mph 48 % 0.00 in
09:17 85.3 °F 62.8 °F 29.83 in NNW 1.2 mph 1.2 mph 47 % 0.00 in
09:22 85.9 °F 63.9 °F 29.83 in SE 2.3 mph 2.3 mph 48 % 0.00 in
09:27 86.3 °F 63.1 °F 29.83 in South 3.5 mph 3.5 mph 46 % 0.00 in
09:32 86.8 °F 64.2 °F 29.83 in South 1.0 mph 1.0 mph 47 % 0.00 in
09:37 87.1 °F 63.8 °F 29.83 in SE 2.3 mph 2.3 mph 46 % 0.00 in
09:42 87.6 °F 64.9 °F 29.83 in SE 2.3 mph 2.3 mph 47 % 0.00 in
09:47 87.8 °F 63.2 °F 29.83 in SSE 3.5 mph 3.5 mph 44 % 0.00 in
09:52 88.0 °F 63.4 °F 29.83 in SSE 2.3 mph 2.3 mph 44 % 0.00 in
09:57 88.6 °F 62.6 °F 29.83 in SE 4.6 mph 4.6 mph 42 % 0.00 in
10:02 89.1 °F 63.0 °F 29.83 in ESE 2.3 mph 2.3 mph 42 % 0.00 in
10:08 89.5 °F 63.4 °F 29.83 in SSE 2.3 mph 2.3 mph 42 % 0.00 in
10:13 89.5 °F 62.7 °F 29.83 in SE 3.5 mph 3.5 mph 41 % 0.00 in
10:18 89.5 °F 62.7 °F 29.83 in ESE 4.6 mph 4.6 mph 41 % 0.00 in
10:23 89.8 °F 63.0 °F 29.82 in East 3.5 mph 3.5 mph 41 % 0.00 in
10:28 90.2 °F 64.0 °F 29.83 in ESE 3.5 mph 3.5 mph 42 % 0.00 in
10:33 90.5 °F 64.3 °F 29.83 in East 4.6 mph 4.6 mph 42 % 0.00 in
10:38 90.4 °F 62.8 °F 29.82 in NNW 2.3 mph 2.3 mph 40 % 0.00 in
10:43 90.1 °F 63.2 °F 29.82 in NW 3.5 mph 3.5 mph 41 % 0.00 in
10:48 90.3 °F 64.1 °F 29.82 in SE 2.3 mph 2.3 mph 42 % 0.00 in
10:53 90.7 °F 62.3 °F 29.82 in SSW 2.3 mph 2.3 mph 39 % 0.00 in
10:58 90.9 °F 64.6 °F 29.82 in SE 1.2 mph 1.2 mph 42 % 0.00 in
11:03 91.2 °F 62.8 °F 29.82 in SSE 1.2 mph 1.2 mph 39 % 0.00 in
11:08 91.6 °F 65.3 °F 29.82 in SSE 2.3 mph 2.3 mph 42 % 0.00 in
11:13 92.0 °F 63.5 °F 29.82 in SSE 3.5 mph 3.5 mph 39 % 0.00 in
11:18 92.1 °F 64.3 °F 29.82 in ESE 3.5 mph 3.5 mph 40 % 0.00 in
11:23 92.0 °F 63.5 °F 29.82 in ENE 3.5 mph 3.5 mph 39 % 0.00 in
11:28 92.1 °F 63.6 °F 29.82 in SW 3.5 mph 3.5 mph 39 % 0.00 in
11:33 92.2 °F 62.9 °F 29.82 in SSE 2.3 mph 2.3 mph 38 % 0.00 in
11:38 92.6 °F 64.0 °F 29.81 in SE 2.0 mph 2.0 mph 39 % 0.00 in
11:43 93.1 °F 64.5 °F 29.81 in SE 2.3 mph 2.3 mph 39 % 0.00 in
11:48 93.6 °F 63.4 °F 29.81 in SSE 3.5 mph 3.5 mph 37 % 0.00 in
11:53 93.9 °F 65.2 °F 29.81 in West 2.3 mph 2.3 mph 39 % 0.00 in
11:58 93.9 °F 64.4 °F 29.81 in North 3.5 mph 3.5 mph 38 % 0.00 in
12:03 93.7 °F 64.3 °F 29.81 in SE 2.3 mph 2.3 mph 38 % 0.00 in
12:08 94.0 °F 65.3 °F 29.81 in ENE 2.3 mph 2.3 mph 39 % 0.00 in
12:13 94.4 °F 65.6 °F 29.81 in WNW 2.3 mph 2.3 mph 39 % 0.00 in
12:18 95.0 °F 66.9 °F 29.81 in ENE 1.2 mph 1.2 mph 40 % 0.00 in
12:23 95.3 °F 63.3 °F 29.81 in NW 2.0 mph 2.0 mph 35 % 0.00 in
12:29 95.1 °F 61.5 °F 29.80 in ESE 2.3 mph 2.3 mph 33 % 0.00 in
12:34 95.4 °F 63.4 °F 29.80 in North 2.3 mph 2.3 mph 35 % 0.00 in
12:39 95.3 °F 63.3 °F 29.80 in ENE 2.3 mph 2.3 mph 35 % 0.00 in
12:44 95.6 °F 62.8 °F 29.80 in NW 3.5 mph 3.5 mph 34 % 0.00 in
12:49 95.8 °F 63.8 °F 29.80 in ENE 2.3 mph 2.3 mph 35 % 0.00 in
12:54 96.5 °F 62.7 °F 29.80 in West 2.3 mph 2.3 mph 33 % 0.00 in
12:59 96.6 °F 63.6 °F 29.80 in SE 2.3 mph 2.3 mph 34 % 0.00 in
13:04 96.9 °F 63.0 °F 29.79 in NW 3.5 mph 3.5 mph 33 % 0.00 in
13:09 97.4 °F 63.5 °F 29.79 in North 1.2 mph 1.2 mph 33 % 0.00 in
13:14 97.9 °F 62.1 °F 29.79 in North 3.5 mph 3.5 mph 31 % 0.00 in
13:19 98.2 °F 63.3 °F 29.79 in NW 2.3 mph 2.3 mph 32 % 0.00 in
13:24 98.2 °F 62.4 °F 29.79 in WNW 2.3 mph 2.3 mph 31 % 0.00 in
13:29 98.6 °F 59.9 °F 29.79 in NNW 3.5 mph 3.5 mph 28 % 0.00 in
13:34 98.7 °F 61.9 °F 29.78 in WNW 2.3 mph 2.3 mph 30 % 0.00 in
13:39 98.5 °F 62.6 °F 29.78 in West 3.5 mph 3.5 mph 31 % 0.00 in
13:44 99.2 °F 62.3 °F 29.78 in NW 2.3 mph 2.3 mph 30 % 0.00 in
13:49 99.8 °F 60.9 °F 29.79 in WNW 2.3 mph 2.3 mph 28 % 0.00 in
13:54 100.1 °F 61.1 °F 29.78 in WNW 2.3 mph 2.3 mph 28 % 0.00 in
13:59 100.4 °F 60.4 °F 29.78 in NW 2.3 mph 2.3 mph 27 % 0.00 in
14:01 100.4 °F 62.4 °F 29.78 in East 2.3 mph 2.3 mph 29 % 0.00 in
14:06 100.5 °F 61.5 °F 29.78 in SE 1.2 mph 1.2 mph 28 % 0.00 in
14:11 100.7 °F 61.6 °F 29.78 in East 3.5 mph 3.5 mph 28 % 0.00 in
14:16 100.8 °F 61.7 °F 29.78 in NW 2.3 mph   28 % 0.00 in
14:21 101.4 °F 60.1 °F 29.77 in NW 3.5 mph 3.5 mph 26 % 0.00 in
14:27 101.6 °F 58.1 °F 29.77 in NNW 2.3 mph 2.3 mph 24 % 0.00 in
14:31 101.7 °F 57.0 °F 29.77 in WNW 3.5 mph 3.5 mph 23 % 0.00 in
14:37 101.8 °F 51.8 °F 29.77 in WNW 3.5 mph 3.5 mph 19 % 0.00 in
14:42 101.8 °F 48.8 °F 29.77 in NW 3.5 mph 3.5 mph 17 % 0.00 in
14:47 101.6 °F 48.7 °F 29.77 in NW 4.6 mph 4.6 mph 17 % 0.00 in
14:52 101.3 °F 52.8 °F 29.77 in NNE 2.3 mph 2.3 mph 20 % 0.00 in
14:57 101.4 °F 51.5 °F 29.77 in NW 4.6 mph 4.6 mph 19 % 0.00 in
15:02 101.3 °F 52.8 °F 29.76 in NW 3.5 mph 3.5 mph 20 % 0.00 in
15:07 101.4 °F 52.9 °F 29.76 in NW 3.0 mph 3.0 mph 20 % 0.00 in
15:12 101.4 °F 52.9 °F 29.76 in NW 5.0 mph 5.0 mph 20 % 0.00 in
15:17 101.4 °F 54.2 °F 29.76 in West 4.6 mph 4.6 mph 21 % 0.00 in
15:22 101.7 °F 54.5 °F 29.76 in WNW 4.6 mph 4.6 mph 21 % 0.00 in
15:27 101.9 °F 54.6 °F 29.76 in WNW 3.5 mph 3.5 mph 21 % 0.00 in
15:32 101.6 °F 51.6 °F 29.76 in NW 4.6 mph 4.6 mph 19 % 0.00 in
15:37 101.3 °F 55.4 °F 29.75 in NW 6.9 mph 6.9 mph 22 % 0.00 in
15:42 101.4 °F 54.2 °F 29.75 in NW 7.0 mph 7.0 mph 21 % 0.00 in
15:47 101.4 °F 55.5 °F 29.75 in NW 4.6 mph 4.6 mph 22 % 0.00 in
15:52 101.6 °F 53.0 °F 29.75 in NW 4.6 mph 4.6 mph 20 % 0.00 in
15:57 101.6 °F 53.0 °F 29.75 in NW 4.6 mph 4.6 mph 20 % 0.00 in
16:02 101.3 °F 56.6 °F 29.75 in NNE 4.6 mph 4.6 mph 23 % 0.00 in
16:07 101.4 °F 55.5 °F 29.75 in NW 3.5 mph 3.5 mph 22 % 0.00 in
16:12 101.4 °F 54.2 °F 29.75 in WNW 3.5 mph 3.5 mph 21 % 0.00 in
16:17 101.9 °F 55.9 °F 29.75 in WNW 2.3 mph 2.3 mph 22 % 0.00 in
16:22 101.8 °F 51.8 °F 29.75 in NNE 5.0 mph 5.0 mph 19 % 0.00 in
16:27 101.6 °F 54.4 °F 29.75 in WSW 3.5 mph 3.5 mph 21 % 0.00 in
16:32 102.1 °F 56.1 °F 29.75 in WNW 1.2 mph 1.2 mph 22 % 0.00 in
16:37 102.5 °F 49.4 °F 29.75 in NW 2.3 mph 2.3 mph 17 % 0.00 in
16:42 102.7 °F 47.9 °F 29.74 in NNW 4.6 mph 4.6 mph 16 % 0.00 in
16:47 102.4 °F 50.8 °F 29.74 in NNW 4.6 mph 4.6 mph 18 % 0.00 in
16:52 102.1 °F 50.6 °F 29.74 in WNW 2.3 mph 2.3 mph 18 % 0.00 in
16:57 102.5 °F 47.8 °F 29.74 in NW 3.5 mph 3.5 mph 16 % 0.00 in
17:02 102.6 °F 47.8 °F 29.74 in North 4.6 mph 4.6 mph 16 % 0.00 in
17:07 103.0 °F 51.3 °F 29.74 in NW 2.3 mph 2.3 mph 18 % 0.00 in
17:12 103.0 °F 48.2 °F 29.74 in NNW 3.5 mph 3.5 mph 16 % 0.00 in
17:17 102.9 °F 52.7 °F 29.74 in NW 4.6 mph 4.6 mph 19 % 0.00 in
17:22 102.7 °F 51.1 °F 29.73 in WNW 2.3 mph 2.3 mph 18 % 0.00 in
17:27 102.7 °F 49.5 °F 29.73 in NW 3.0 mph 3.0 mph 17 % 0.00 in
17:32 102.8 °F 51.2 °F 29.73 in NW 3.5 mph 3.5 mph 18 % 0.00 in
17:37 103.0 °F 51.3 °F 29.73 in NW 3.5 mph 3.5 mph 18 % 0.00 in
17:42 102.9 °F 48.1 °F 29.73 in WSW 3.5 mph 3.5 mph 16 % 0.00 in
17:47 102.9 °F 48.1 °F 29.73 in WNW 3.5 mph 3.5 mph 16 % 0.00 in
17:52 102.7 °F 51.1 °F 29.73 in NW 3.5 mph 3.5 mph 18 % 0.00 in
17:57 102.7 °F 51.1 °F 29.73 in WNW 2.3 mph 2.3 mph 18 % 0.00 in
18:02 102.8 °F 49.6 °F 29.73 in WNW 2.3 mph 2.3 mph 17 % 0.00 in
18:07 102.8 °F 51.2 °F 29.73 in WNW 1.0 mph 1.0 mph 18 % 0.00 in
18:13 103.2 °F 51.5 °F 29.73 in NW 1.2 mph 1.2 mph 18 % 0.00 in
18:18 103.0 °F 52.8 °F 29.73 in NW 2.3 mph 2.3 mph 19 % 0.00 in
18:23 102.7 °F 52.5 °F 29.72 in NW 2.3 mph 2.3 mph 19 % 0.00 in
18:28 102.4 °F 52.3 °F 29.72 in NW 2.3 mph 2.3 mph 19 % 0.00 in
18:33 102.3 °F 55.0 °F 29.72 in NW 1.2 mph 1.2 mph 21 % 0.00 in
18:38 102.3 °F 55.0 °F 29.72 in WNW 2.3 mph 2.3 mph 21 % 0.00 in
18:43 102.1 °F 56.1 °F 29.72 in WNW 1.2 mph 1.2 mph 22 % 0.00 in
18:48 101.9 °F 55.9 °F 29.72 in Calm     22 % 0.00 in
18:53 101.6 °F 55.7 °F 29.72 in NW 2.3 mph 2.3 mph 22 % 0.00 in
18:58 100.8 °F 55.0 °F 29.72 in WNW 1.2 mph 1.2 mph 22 % 0.00 in
19:03 99.9 °F 55.5 °F 29.72 in WNW 2.3 mph 2.3 mph 23 % 0.00 in
19:08 99.2 °F 56.1 °F 29.72 in NW 2.0 mph 2.0 mph 24 % 0.00 in
19:13 98.5 °F 56.6 °F 29.72 in WNW 1.0 mph   25 % 0.00 in
19:18 97.9 °F 56.1 °F 29.72 in WNW 2.3 mph 2.3 mph 25 % 0.00 in
19:23 97.4 °F 57.8 °F 29.73 in Calm     27 % 0.00 in
19:28 97.0 °F 56.4 °F 29.72 in Calm     26 % 0.00 in
19:33 96.6 °F 58.2 °F 29.73 in WNW 1.2 mph   28 % 0.00 in
19:38 96.0 °F 57.6 °F 29.73 in Calm     28 % 0.00 in
19:43 95.2 °F 57.9 °F 29.73 in WNW 1.2 mph   29 % 0.00 in
19:48 94.6 °F 58.4 °F 29.73 in NW 1.2 mph   30 % 0.00 in
19:53 93.9 °F 58.7 °F 29.73 in Calm     31 % 0.00 in
19:58 93.2 °F 58.1 °F 29.73 in Calm     31 % 0.00 in
20:03 92.4 °F 58.3 °F 29.74 in Calm     32 % 0.00 in
20:08 91.7 °F 59.3 °F 29.74 in Calm     34 % 0.00 in
20:13 90.9 °F 59.5 °F 29.74 in Calm     35 % 0.00 in
20:18 90.2 °F 58.0 °F 29.74 in Calm     34 % 0.00 in
20:23 89.6 °F 59.9 °F 29.74 in Calm     37 % 0.00 in
20:28 89.2 °F 61.0 °F 29.74 in Calm     39 % 0.00 in
20:33 88.6 °F 59.7 °F 29.74 in Calm     38 % 0.00 in
20:38 87.9 °F 59.1 °F 29.75 in Calm     38 % 0.00 in
20:43 87.4 °F 60.8 °F 29.75 in Calm     41 % 0.00 in
20:48 86.8 °F 61.0 °F 29.75 in Calm     42 % 0.00 in
20:53 86.1 °F 61.0 °F 29.75 in Calm     43 % 0.00 in
20:58 85.6 °F 60.5 °F 29.75 in Calm     43 % 0.00 in
21:03 85.0 °F 61.3 °F 29.76 in Calm     45 % 0.00 in
21:08 84.5 °F 62.1 °F 29.76 in Calm     47 % 0.00 in
21:14 84.1 °F 64.0 °F 29.76 in Calm     51 % 0.00 in
21:19 83.2 °F 60.9 °F 29.76 in Calm     47 % 0.00 in
21:24 82.8 °F 61.1 °F 29.77 in Calm     48 % 0.00 in
21:29 82.5 °F 60.8 °F 29.77 in Calm     48 % 0.00 in
21:34 82.5 °F 60.2 °F 29.77 in Calm     47 % 0.00 in
21:39 82.5 °F 60.2 °F 29.77 in Calm     47 % 0.00 in
21:44 82.3 °F 61.2 °F 29.77 in Calm     49 % 0.00 in
21:54 81.9 °F 62.5 °F 29.77 in Calm     52 % 0.00 in
21:59 81.7 °F 62.4 °F 29.77 in Calm     52 % 0.00 in
22:04 81.7 °F 61.8 °F 29.77 in Calm     51 % 0.00 in
22:09 81.6 °F 63.3 °F 29.77 in Calm     54 % 0.00 in
22:14 81.4 °F 63.7 °F 29.78 in Calm     55 % 0.00 in
22:19 81.0 °F 63.3 °F 29.78 in Calm     55 % 0.00 in
22:24 80.6 °F 64.0 °F 29.78 in Calm     57 % 0.00 in
22:29 80.4 °F 62.8 °F 29.78 in Calm     55 % 0.00 in
22:34 80.5 °F 62.8 °F 29.78 in Calm     55 % 0.00 in
22:39 80.4 °F 63.3 °F 29.78 in Calm     56 % 0.00 in
22:44 80.1 °F 65.0 °F 29.78 in Calm     60 % 0.00 in
22:49 79.6 °F 65.0 °F 29.78 in Calm     61 % 0.00 in
22:54 79.2 °F 64.1 °F 29.78 in Calm     60 % 0.00 in
22:59 79.4 °F 62.3 °F 29.78 in Calm     56 % 0.00 in
23:04 80.1 °F 62.0 °F 29.78 in Calm     54 % 0.00 in
23:09 81.1 °F 61.3 °F 29.78 in Calm     51 % 0.00 in
23:14 81.3 °F 60.9 °F 29.79 in Calm     50 % 0.00 in
23:19 81.3 °F 61.4 °F 29.79 in Calm     51 % 0.00 in
23:24 81.4 °F 62.1 °F 29.79 in Calm     52 % 0.00 in
23:29 81.1 °F 61.3 °F 29.79 in Calm     51 % 0.00 in
23:35 80.7 °F 61.4 °F 29.79 in Calm     52 % 0.00 in
23:40 80.3 °F 62.1 °F 29.79 in Calm     54 % 0.00 in
23:45 79.8 °F 62.7 °F 29.79 in Calm     56 % 0.00 in
23:50 79.2 °F 63.1 °F 29.79 in Calm     58 % 0.00 in
23:55 78.8 °F 61.3 °F 29.79 in Calm     55 % 0.00 in
Park Place, Exeter, Tulare County, California, USA
Compliments of Weather Underground - 2.75 mb